createdAt,value
2022-10-23T00:00:37.118Z,9.88
2022-10-23T00:03:04.268Z,10.13
2022-10-23T00:05:30.876Z,3.00
2022-10-23T00:07:58.960Z,5.65
2022-10-23T00:10:26.656Z,8.98
2022-10-23T00:12:54.018Z,4.93
2022-10-23T00:15:21.648Z,6.78
2022-10-23T00:17:48.404Z,4.15
2022-10-23T00:20:15.659Z,6.25
2022-10-23T00:22:42.225Z,6.47
2022-10-23T00:25:09.120Z,4.38
2022-10-23T00:27:35.621Z,5.82
2022-10-23T00:30:02.775Z,5.35
2022-10-23T00:32:29.354Z,3.40
2022-10-23T00:34:55.886Z,3.00
2022-10-23T00:37:22.947Z,7.47
2022-10-23T00:39:49.444Z,2.95
2022-10-23T00:42:19.939Z,6.93
2022-10-23T00:44:46.383Z,5.28
2022-10-23T00:47:13.967Z,5.57
2022-10-23T00:49:42.758Z,5.25
2022-10-23T00:52:12.047Z,5.10
2022-10-23T00:54:39.986Z,4.57
2022-10-23T00:57:08.014Z,5.18
2022-10-23T00:59:34.520Z,6.63
2022-10-23T01:02:01.076Z,7.07
2022-10-23T01:04:28.108Z,3.05
2022-10-23T01:06:57.531Z,4.13
2022-10-23T01:09:39.181Z,4.65
2022-10-23T01:12:08.407Z,4.57
2022-10-23T01:14:43.068Z,5.43
2022-10-23T01:17:17.548Z,4.35
2022-10-23T01:19:47.191Z,4.65
2022-10-23T01:24:52.067Z,6.57
2022-10-23T01:27:18.498Z,7.57
2022-10-23T01:30:06.074Z,3.25
2022-10-23T01:32:39.610Z,7.70
2022-10-23T01:35:15.523Z,16.05
2022-10-23T01:37:47.878Z,4.15
2022-10-23T01:40:20.507Z,4.28
2022-10-23T01:42:50.397Z,4.50
2022-10-23T01:45:23.694Z,4.43
2022-10-23T01:47:50.822Z,5.50
2022-10-23T01:50:18.941Z,7.78
2022-10-23T01:52:45.475Z,7.63
2022-10-23T01:55:12.497Z,6.85
2022-10-23T01:57:40.350Z,6.97
2022-10-23T02:00:12.134Z,10.85
2022-10-23T02:02:39.352Z,6.90
2022-10-23T02:05:17.326Z,5.85
2022-10-23T02:07:44.560Z,7.05
2022-10-23T02:10:12.360Z,5.00
2022-10-23T02:12:41.744Z,5.55
2022-10-23T02:15:14.351Z,5.63
2022-10-23T02:17:59.512Z,6.90
2022-10-23T02:20:46.420Z,5.97
2022-10-23T02:23:21.475Z,9.98
2022-10-23T02:25:54.049Z,7.55
2022-10-23T02:28:23.728Z,7.38
2022-10-23T02:30:50.683Z,6.85
2022-10-23T02:33:17.564Z,6.45
2022-10-23T02:35:44.641Z,6.55
2022-10-23T02:38:28.796Z,6.50
2022-10-23T02:40:56.464Z,6.72
2022-10-23T02:43:27.173Z,9.32
2022-10-23T02:45:59.422Z,3.42
2022-10-23T02:48:31.934Z,10.38
2022-10-23T02:51:10.521Z,7.20
2022-10-23T02:56:47.187Z,7.75
2022-10-23T02:59:16.476Z,6.13
2022-10-23T03:01:50.964Z,5.80
2022-10-23T03:04:18.542Z,7.90
2022-10-23T03:06:45.604Z,8.20
2022-10-23T03:09:12.050Z,8.70
2022-10-23T03:11:38.534Z,5.47
2022-10-23T03:14:05.016Z,8.48
2022-10-23T03:16:31.500Z,5.60
2022-10-23T03:18:57.990Z,6.60
2022-10-23T03:21:24.537Z,8.52
2022-10-23T03:23:51.008Z,7.43
2022-10-23T03:26:17.515Z,15.55
2022-10-23T03:28:44.031Z,6.53
2022-10-23T03:31:10.635Z,6.55
2022-10-23T03:33:37.121Z,7.03
2022-10-23T03:36:03.688Z,7.45
2022-10-23T03:38:30.171Z,9.77
2022-10-23T03:40:56.668Z,6.22
2022-10-23T03:43:23.171Z,8.05
2022-10-23T03:45:50.784Z,7.40
2022-10-23T03:48:17.351Z,8.60
2022-10-23T03:50:43.834Z,8.32
2022-10-23T03:53:10.321Z,11.82
2022-10-23T03:55:36.800Z,7.93
2022-10-23T03:58:03.334Z,7.30
2022-10-23T04:00:29.864Z,8.82
2022-10-23T04:02:56.351Z,8.55
2022-10-23T04:05:22.798Z,8.52
2022-10-23T04:07:49.257Z,8.90
2022-10-23T04:10:15.717Z,7.93
2022-10-23T04:12:42.796Z,6.57
2022-10-23T04:15:09.559Z,10.40
2022-10-23T04:17:36.044Z,6.32
2022-10-23T04:20:02.563Z,12.40
2022-10-23T04:22:29.127Z,7.63
2022-10-23T04:24:55.751Z,9.27
2022-10-23T04:27:22.801Z,9.77
2022-10-23T04:29:49.395Z,14.77
2022-10-23T04:32:16.071Z,9.88
2022-10-23T04:34:42.610Z,11.90
2022-10-23T04:37:09.073Z,10.60
2022-10-23T04:39:35.578Z,11.85
2022-10-23T04:42:02.047Z,12.23
2022-10-23T04:44:28.530Z,12.85
2022-10-23T04:46:55.279Z,8.90
2022-10-23T04:49:21.803Z,11.95
2022-10-23T04:51:48.240Z,10.13
2022-10-23T04:54:14.757Z,11.90
2022-10-23T04:56:41.199Z,12.93
2022-10-23T04:59:08.274Z,13.68
2022-10-23T05:01:34.908Z,5.95
2022-10-23T05:04:01.508Z,18.25
2022-10-23T05:06:27.987Z,13.38
2022-10-23T05:08:54.454Z,10.20
2022-10-23T05:11:21.035Z,9.07
2022-10-23T05:13:47.558Z,9.20
2022-10-23T05:16:21.824Z,9.80
2022-10-23T05:18:48.915Z,10.95
2022-10-23T05:21:20.722Z,10.95
2022-10-23T05:23:47.761Z,12.43
2022-10-23T05:26:14.446Z,9.20
2022-10-23T05:28:40.952Z,8.55
2022-10-23T05:31:07.471Z,11.82
2022-10-23T05:33:34.784Z,10.23
2022-10-23T05:36:01.384Z,13.05
2022-10-23T05:38:29.364Z,14.95
2022-10-23T05:40:55.919Z,8.48
2022-10-23T05:43:22.417Z,13.75
2022-10-23T05:45:49.117Z,8.90
2022-10-23T05:48:29.741Z,14.98
2022-10-23T05:51:06.867Z,11.95
2022-10-23T05:53:34.579Z,10.40
2022-10-23T05:56:06.877Z,8.18
2022-10-23T05:58:33.809Z,8.77
2022-10-23T06:01:00.461Z,13.10
2022-10-23T06:03:27.002Z,14.95
2022-10-23T06:05:53.602Z,12.52
2022-10-23T06:08:20.158Z,10.88
2022-10-23T06:10:46.645Z,12.82
2022-10-23T06:13:13.117Z,8.45
2022-10-23T06:15:39.668Z,10.18
2022-10-23T06:18:06.222Z,10.48
2022-10-23T06:20:35.111Z,9.43
2022-10-23T06:23:01.587Z,12.45
2022-10-23T06:25:28.055Z,10.32
2022-10-23T06:27:54.514Z,13.48
2022-10-23T06:30:21.012Z,12.35
2022-10-23T06:32:47.536Z,10.20
2022-10-23T06:35:14.022Z,8.57
2022-10-23T06:37:40.513Z,8.27
2022-10-23T06:40:08.752Z,9.43
2022-10-23T06:42:35.611Z,10.25
2022-10-23T06:45:04.887Z,9.40
2022-10-23T06:47:33.652Z,9.65
2022-10-23T06:50:00.133Z,14.88
2022-10-23T06:52:45.972Z,15.20
2022-10-23T06:55:13.082Z,5.18
2022-10-23T06:57:39.562Z,12.50
2022-10-23T07:00:06.387Z,9.70
2022-10-23T07:02:32.895Z,7.80
2022-10-23T07:04:59.353Z,8.35
2022-10-23T07:07:25.845Z,6.65
2022-10-23T07:09:52.311Z,8.98
2022-10-23T07:12:18.759Z,10.35
2022-10-23T07:14:45.216Z,5.80
2022-10-23T07:17:11.724Z,11.50
2022-10-23T07:19:38.184Z,5.30
2022-10-23T07:22:04.686Z,11.15
2022-10-23T07:24:32.000Z,9.32
2022-10-23T07:26:58.491Z,12.98
2022-10-23T07:29:24.938Z,8.60
2022-10-23T07:31:51.405Z,11.85
2022-10-23T07:34:17.932Z,7.68
2022-10-23T07:36:44.393Z,5.55
2022-10-23T07:39:11.948Z,21.00
2022-10-23T07:41:38.451Z,6.32
2022-10-23T07:44:05.024Z,7.82
2022-10-23T07:46:31.513Z,9.68
2022-10-23T07:48:57.996Z,9.48
2022-10-23T07:51:24.525Z,11.15
2022-10-23T07:53:51.021Z,7.25
2022-10-23T07:56:21.012Z,11.50
2022-10-23T07:58:47.434Z,11.07
2022-10-23T08:01:18.722Z,9.32
2022-10-23T08:03:45.408Z,6.60
2022-10-23T08:06:11.868Z,8.00
2022-10-23T08:08:38.383Z,6.22
2022-10-23T08:11:05.038Z,7.50
2022-10-23T08:13:31.507Z,6.10
2022-10-23T08:15:58.740Z,8.50
2022-10-23T08:18:25.487Z,8.75
2022-10-23T08:20:52.563Z,7.07
2022-10-23T08:23:19.735Z,9.23
2022-10-23T08:25:46.525Z,12.90
2022-10-23T08:28:13.026Z,6.35
2022-10-23T08:30:39.525Z,8.85
2022-10-23T08:33:07.000Z,8.82
2022-10-23T08:35:39.796Z,6.53
2022-10-23T08:38:06.679Z,9.50
2022-10-23T08:40:34.898Z,8.35
2022-10-23T08:43:10.336Z,5.80
2022-10-23T08:45:40.515Z,12.32
2022-10-23T08:48:13.290Z,12.48
2022-10-23T08:50:45.815Z,10.00
2022-10-23T08:53:30.626Z,7.53
2022-10-23T08:56:02.261Z,9.77
2022-10-23T08:58:49.206Z,8.27
2022-10-23T09:01:18.838Z,9.75
2022-10-23T09:03:45.418Z,7.63
2022-10-23T09:06:30.730Z,9.10
2022-10-23T09:09:17.440Z,8.05
2022-10-23T09:12:07.266Z,9.50
2022-10-23T09:14:49.091Z,8.52
2022-10-23T09:17:31.622Z,14.27
2022-10-23T09:20:01.335Z,6.45
2022-10-23T09:22:28.486Z,12.68
2022-10-23T09:24:54.964Z,12.10
2022-10-23T09:27:21.612Z,8.75
2022-10-23T09:29:49.366Z,12.07
2022-10-23T09:32:15.885Z,13.00
2022-10-23T09:34:50.881Z,14.85
2022-10-23T09:37:21.441Z,9.30
2022-10-23T09:39:48.335Z,7.30
2022-10-23T09:42:22.516Z,16.95
2022-10-23T09:47:18.516Z,8.98
2022-10-23T09:49:52.539Z,7.18
2022-10-23T09:54:55.694Z,8.60
2022-10-23T09:57:24.716Z,8.93
2022-10-23T09:59:55.380Z,12.77
2022-10-23T10:02:27.388Z,13.52
2022-10-23T10:04:54.071Z,16.65
2022-10-23T10:07:21.629Z,10.10
2022-10-23T10:09:48.462Z,10.43
2022-10-23T10:12:14.899Z,11.80
2022-10-23T10:15:10.802Z,7.43
2022-10-23T10:17:42.104Z,9.57
2022-10-23T10:20:21.230Z,8.73
2022-10-23T10:22:47.636Z,6.68
2022-10-23T10:25:23.442Z,11.50
2022-10-23T10:27:49.868Z,7.68
2022-10-23T10:30:19.038Z,11.85
2022-10-23T10:32:45.471Z,12.00
2022-10-23T10:35:30.899Z,10.20
2022-10-23T10:38:16.263Z,10.18
2022-10-23T10:40:44.661Z,7.85
2022-10-23T10:43:26.182Z,10.40
2022-10-23T10:46:07.980Z,7.85
2022-10-23T10:48:34.452Z,11.68
2022-10-23T10:51:02.615Z,8.10
2022-10-23T10:53:29.047Z,7.53
2022-10-23T10:55:56.878Z,12.35
2022-10-23T10:58:32.734Z,9.43
2022-10-23T11:01:00.561Z,11.60
2022-10-23T11:03:37.474Z,12.68
2022-10-23T11:06:12.154Z,6.53
2022-10-23T11:08:50.001Z,7.50
2022-10-23T11:11:36.124Z,6.43
2022-10-23T11:14:02.940Z,9.05
2022-10-23T11:16:31.408Z,14.25
2022-10-23T11:18:57.840Z,11.20
2022-10-23T11:21:47.499Z,9.07
2022-10-23T11:24:16.789Z,16.00
2022-10-23T11:26:56.178Z,14.13
2022-10-23T11:29:28.996Z,18.90
2022-10-23T11:31:55.557Z,10.13
2022-10-23T11:34:25.137Z,17.02
2022-10-23T11:36:56.091Z,12.35
2022-10-23T11:39:26.539Z,20.23
2022-10-23T11:41:55.242Z,20.45
2022-10-23T11:44:27.813Z,12.40
2022-10-23T11:47:01.756Z,18.02
2022-10-23T11:52:01.980Z,17.13
2022-10-23T11:54:28.688Z,15.15
2022-10-23T11:56:55.135Z,17.30
2022-10-23T11:59:28.832Z,18.10
2022-10-23T12:01:56.852Z,17.05
2022-10-23T12:04:23.460Z,17.80
2022-10-23T12:06:52.679Z,21.33
2022-10-23T12:09:42.244Z,15.13
2022-10-23T12:12:08.702Z,19.83
2022-10-23T12:14:39.833Z,24.15
2022-10-23T12:17:24.714Z,25.85
2022-10-23T12:20:14.498Z,22.25
2022-10-23T12:22:59.782Z,24.38
2022-10-23T12:25:29.370Z,21.70
2022-10-23T12:28:14.511Z,26.85
2022-10-23T12:30:44.652Z,21.23
2022-10-23T12:33:32.031Z,16.80
2022-10-23T12:36:06.007Z,22.98
2022-10-23T12:41:24.297Z,15.77
2022-10-23T12:44:02.151Z,28.40
2022-10-23T12:46:30.744Z,23.33
2022-10-23T12:48:58.334Z,27.58
2022-10-23T12:51:26.487Z,20.00
2022-10-23T12:53:53.019Z,25.58
2022-10-23T12:56:19.855Z,30.55
2022-10-23T12:58:51.391Z,18.35
2022-10-23T13:01:26.006Z,23.88
2022-10-23T13:03:56.148Z,23.40
2022-10-23T13:06:22.965Z,20.15
2022-10-23T13:08:49.642Z,29.80
2022-10-23T13:11:17.946Z,28.42
2022-10-23T13:13:44.875Z,21.05
2022-10-23T13:16:15.442Z,17.70
2022-10-23T13:18:42.392Z,18.85
2022-10-23T13:21:15.983Z,20.65
2022-10-23T13:23:43.551Z,21.95
2022-10-23T13:26:45.637Z,20.40
2022-10-23T13:29:20.521Z,21.42
2022-10-23T13:31:47.440Z,20.73
2022-10-23T13:34:24.375Z,19.00
2022-10-23T13:36:53.684Z,20.02
2022-10-23T13:39:31.311Z,22.75
2022-10-23T13:42:06.342Z,23.25
2022-10-23T13:44:32.800Z,19.38
2022-10-23T13:46:59.240Z,26.60
2022-10-23T13:49:25.791Z,20.33
2022-10-23T13:51:53.317Z,45.03
2022-10-23T13:54:21.435Z,13.65
2022-10-23T13:56:48.013Z,25.67
2022-10-23T13:59:15.160Z,11.43
2022-10-23T14:01:42.328Z,13.57
2022-10-23T14:04:09.547Z,13.00
2022-10-23T14:06:37.628Z,13.02
2022-10-23T14:09:08.063Z,18.55
2022-10-23T14:11:34.591Z,22.15
2022-10-23T14:14:01.038Z,21.92
2022-10-23T14:16:27.905Z,15.77
2022-10-23T14:18:54.435Z,16.70
2022-10-23T14:21:21.899Z,22.30
2022-10-23T14:23:49.294Z,12.85
2022-10-23T14:26:17.799Z,18.95
2022-10-23T14:28:44.389Z,18.80
2022-10-23T14:31:12.001Z,12.93
2022-10-23T14:33:39.071Z,14.95
2022-10-23T14:36:06.018Z,20.05
2022-10-23T14:38:32.589Z,13.38
2022-10-23T14:40:59.176Z,13.20
2022-10-23T14:43:25.907Z,14.57
2022-10-23T14:45:52.739Z,14.85
2022-10-23T14:48:19.478Z,14.85
2022-10-23T14:50:47.508Z,20.08
2022-10-23T14:53:14.197Z,13.38
2022-10-23T14:55:40.664Z,19.42
2022-10-23T14:58:07.277Z,26.27
2022-10-23T15:00:33.771Z,21.02
2022-10-23T15:03:00.392Z,17.08
2022-10-23T15:05:26.938Z,16.38
2022-10-23T15:07:54.848Z,17.77
2022-10-23T15:10:21.382Z,21.65
2022-10-23T15:12:48.671Z,15.85
2022-10-23T15:15:15.214Z,15.63
2022-10-23T15:17:42.397Z,14.23
2022-10-23T15:20:09.156Z,14.77
2022-10-23T15:22:35.664Z,11.82
2022-10-23T15:25:02.163Z,14.52
2022-10-23T15:27:28.866Z,21.80
2022-10-23T15:29:55.345Z,16.20
2022-10-23T15:32:21.843Z,18.77
2022-10-23T15:34:49.828Z,22.73
2022-10-23T15:37:16.529Z,17.23
2022-10-23T15:39:43.187Z,39.75
2022-10-23T15:42:10.137Z,40.90
2022-10-23T15:44:36.871Z,71.85
2022-10-23T15:47:03.519Z,101.85
2022-10-23T15:49:30.858Z,81.80
2022-10-23T15:51:57.705Z,43.83
2022-10-23T15:54:27.023Z,75.45
2022-10-23T15:56:55.948Z,21.13
2022-10-23T15:59:23.505Z,90.07
2022-10-23T16:01:50.478Z,57.45
2022-10-23T16:04:17.259Z,54.22
2022-10-23T16:06:44.377Z,63.67
2022-10-23T16:09:10.892Z,51.88
2022-10-23T16:11:38.202Z,113.55
2022-10-23T16:14:05.458Z,69.53
2022-10-23T16:16:32.680Z,12.93
2022-10-23T16:19:00.523Z,28.55
2022-10-23T16:21:28.420Z,48.55
2022-10-23T16:23:55.705Z,45.72
2022-10-23T16:26:22.697Z,59.53
2022-10-23T16:28:52.948Z,125.18
2022-10-23T16:31:21.154Z,10.07
2022-10-23T16:33:48.511Z,39.20
2022-10-23T16:36:15.391Z,106.03
2022-10-23T16:38:41.854Z,25.13
2022-10-23T16:41:08.335Z,10.77
2022-10-23T16:43:34.936Z,9.52
2022-10-23T16:46:02.250Z,20.27
2022-10-23T16:48:29.399Z,55.25
2022-10-23T16:50:55.871Z,20.77
2022-10-23T16:53:23.198Z,50.63
2022-10-23T16:55:49.706Z,21.02
2022-10-23T16:58:16.247Z,56.78
2022-10-23T17:00:42.719Z,78.65
2022-10-23T17:03:10.887Z,42.78
2022-10-23T17:05:37.336Z,85.03
2022-10-23T17:08:03.827Z,92.20
2022-10-23T17:10:30.331Z,47.97
2022-10-23T17:12:56.837Z,47.40
2022-10-23T17:15:24.295Z,79.72
2022-10-23T17:17:51.112Z,56.60
2022-10-23T17:20:17.909Z,23.70
2022-10-23T17:22:44.670Z,49.20
2022-10-23T17:25:11.585Z,114.30
2022-10-23T17:27:38.467Z,55.40
2022-10-23T17:30:09.241Z,75.38
2022-10-23T17:32:38.272Z,61.22
2022-10-23T17:35:05.620Z,43.58
2022-10-23T17:37:32.272Z,77.10
2022-10-23T17:40:01.100Z,216.43
2022-10-23T17:42:28.465Z,85.40
2022-10-23T17:44:55.036Z,60.40
2022-10-23T17:47:21.569Z,56.85
2022-10-23T17:49:48.068Z,58.50
2022-10-23T17:52:15.170Z,76.05
2022-10-23T17:54:42.323Z,82.03
2022-10-23T17:57:08.759Z,117.88
2022-10-23T17:59:35.234Z,42.50
2022-10-23T18:02:01.910Z,337.75
2022-10-23T18:04:28.447Z,136.38
2022-10-23T18:06:54.948Z,146.70
2022-10-23T18:09:22.186Z,155.85
2022-10-23T18:11:49.131Z,438.55
2022-10-23T18:14:16.452Z,165.68
2022-10-23T18:16:42.960Z,188.80
2022-10-23T18:19:10.543Z,284.55
2022-10-23T18:21:38.062Z,154.90
2022-10-23T18:24:04.727Z,107.72
2022-10-23T18:26:32.291Z,120.90
2022-10-23T18:28:59.331Z,41.72
2022-10-23T18:31:27.158Z,247.85
2022-10-23T18:33:57.263Z,71.07
2022-10-23T18:36:25.047Z,57.38
2022-10-23T18:38:51.628Z,49.83
2022-10-23T18:41:18.853Z,107.20
2022-10-23T18:43:45.891Z,78.30
2022-10-23T18:46:13.141Z,56.78
2022-10-23T18:48:39.991Z,46.92
2022-10-23T18:51:15.538Z,89.82
2022-10-23T18:53:42.514Z,40.90
2022-10-23T18:56:08.985Z,27.35
2022-10-23T18:58:35.525Z,88.13
2022-10-23T19:01:02.100Z,52.08
2022-10-23T19:03:28.619Z,37.25
2022-10-23T19:05:55.112Z,22.50
2022-10-23T19:08:21.973Z,19.88
2022-10-23T19:10:49.710Z,17.00
2022-10-23T19:13:17.156Z,20.42
2022-10-23T19:15:44.260Z,21.38
2022-10-23T19:18:11.052Z,24.75
2022-10-23T19:20:37.782Z,16.15
2022-10-23T19:23:05.887Z,13.70
2022-10-23T19:25:33.168Z,10.13
2022-10-23T19:28:00.340Z,16.50
2022-10-23T19:30:27.141Z,18.02
2022-10-23T19:32:53.751Z,35.88
2022-10-23T19:35:21.402Z,19.00
2022-10-23T19:37:48.267Z,110.13
2022-10-23T19:40:15.307Z,59.10
2022-10-23T19:42:42.428Z,44.80
2022-10-23T19:45:10.608Z,37.13
2022-10-23T19:47:37.244Z,32.03
2022-10-23T19:50:04.884Z,36.00
2022-10-23T19:52:31.368Z,22.20
2022-10-23T19:54:57.876Z,28.15
2022-10-23T19:57:24.407Z,23.63
2022-10-23T19:59:51.525Z,14.55
2022-10-23T20:02:18.868Z,13.40
2022-10-23T20:04:45.538Z,20.67
2022-10-23T20:07:12.220Z,13.95
2022-10-23T20:09:38.680Z,28.95
2022-10-23T20:12:05.206Z,31.52
2022-10-23T20:14:31.715Z,52.05
2022-10-23T20:16:59.790Z,41.92
2022-10-23T20:19:26.345Z,29.70
2022-10-23T20:21:53.098Z,36.75
2022-10-23T20:24:24.184Z,32.95
2022-10-23T20:26:52.283Z,24.23
2022-10-23T20:29:19.146Z,51.40
2022-10-23T20:31:45.677Z,37.33
2022-10-23T20:34:12.235Z,24.42
2022-10-23T20:36:45.461Z,21.63
2022-10-23T20:39:14.942Z,71.70
2022-10-23T20:41:41.883Z,41.08
2022-10-23T20:44:09.491Z,12.27
2022-10-23T20:46:36.085Z,14.60
2022-10-23T20:49:02.662Z,105.95
2022-10-23T20:51:29.162Z,37.75
2022-10-23T20:53:55.717Z,23.05
2022-10-23T20:56:23.855Z,10.73
2022-10-23T20:58:50.733Z,48.28
2022-10-23T21:01:18.296Z,47.08
2022-10-23T21:03:49.423Z,17.65
2022-10-23T21:06:16.830Z,10.20
2022-10-23T21:08:43.629Z,48.20
2022-10-23T21:11:14.916Z,18.83
2022-10-23T21:13:42.473Z,13.20
2022-10-23T21:16:28.838Z,38.67
2022-10-23T21:18:56.375Z,33.10
2022-10-23T21:21:23.446Z,12.30
2022-10-23T21:23:51.163Z,62.92
2022-10-23T21:26:21.948Z,23.10
2022-10-23T21:28:56.040Z,18.05
2022-10-23T21:31:33.748Z,10.52
2022-10-23T21:34:00.344Z,42.45
2022-10-23T21:36:29.140Z,50.85
2022-10-23T21:38:57.647Z,10.80
2022-10-23T21:41:25.570Z,23.33
2022-10-23T21:43:52.942Z,54.38
2022-10-23T21:46:22.700Z,10.02
2022-10-23T21:48:49.647Z,9.10
2022-10-23T21:51:27.828Z,52.72
2022-10-23T21:53:54.418Z,12.88
2022-10-23T21:56:29.926Z,21.67
2022-10-23T21:58:57.498Z,10.80
2022-10-23T22:01:24.389Z,25.05
2022-10-23T22:03:51.371Z,8.57
2022-10-23T22:06:20.452Z,10.57
2022-10-23T22:08:47.907Z,7.28
2022-10-23T22:11:14.486Z,2.67
2022-10-23T22:13:41.943Z,20.88
2022-10-23T22:16:09.289Z,7.60
2022-10-23T22:18:36.892Z,20.30
2022-10-23T22:21:05.112Z,38.85
2022-10-23T22:23:31.715Z,3.05
2022-10-23T22:25:58.358Z,1.15
2022-10-23T22:28:25.014Z,2.45
2022-10-23T22:30:51.523Z,14.27
2022-10-23T22:33:18.133Z,5.18
2022-10-23T22:35:44.669Z,3.08
2022-10-23T22:38:11.150Z,9.02
2022-10-23T22:40:38.884Z,3.55
2022-10-23T22:43:06.700Z,8.93
2022-10-23T22:45:33.248Z,3.15
2022-10-23T22:47:59.785Z,5.10
2022-10-23T22:50:26.477Z,3.40
2022-10-23T22:52:52.951Z,3.63
2022-10-23T22:55:19.476Z,14.07
2022-10-23T22:57:46.099Z,12.52
2022-10-23T23:00:13.037Z,3.38
2022-10-23T23:02:39.479Z,3.50
2022-10-23T23:05:06.271Z,4.38
2022-10-23T23:07:32.721Z,9.27
2022-10-23T23:09:59.255Z,6.90
2022-10-23T23:12:25.698Z,8.60
2022-10-23T23:14:52.249Z,3.97
2022-10-23T23:17:18.930Z,11.68
2022-10-23T23:19:45.388Z,3.65
2022-10-23T23:22:11.900Z,3.03
2022-10-23T23:24:38.415Z,13.05
2022-10-23T23:27:04.960Z,4.85
2022-10-23T23:29:31.873Z,2.10
2022-10-23T23:31:58.470Z,11.50
2022-10-23T23:34:24.934Z,1.80
2022-10-23T23:36:51.433Z,3.90
2022-10-23T23:39:17.947Z,6.85
2022-10-23T23:41:44.423Z,5.18
2022-10-23T23:44:11.242Z,3.15
2022-10-23T23:46:37.845Z,1.83
2022-10-23T23:49:04.352Z,3.72
2022-10-23T23:51:30.904Z,15.38
2022-10-23T23:53:57.461Z,68.93
2022-10-23T23:56:23.978Z,4.65
2022-10-23T23:58:50.568Z,10.68
